sensor_id;sensor_type;location;lat;lon;timestamp;temperature;humidity
60039;DHT22;45916;52.734;6.544;2023-08-30T00:00:40;11.60;99.90
60039;DHT22;45916;52.734;6.544;2023-08-30T00:03:07;11.60;99.90
60039;DHT22;45916;52.734;6.544;2023-08-30T00:05:32;11.60;99.90
60039;DHT22;45916;52.734;6.544;2023-08-30T00:07:58;11.60;99.90
60039;DHT22;45916;52.734;6.544;2023-08-30T00:10:24;11.50;99.90
60039;DHT22;45916;52.734;6.544;2023-08-30T00:12:50;11.40;99.90
60039;DHT22;45916;52.734;6.544;2023-08-30T00:15:16;11.50;99.90
60039;DHT22;45916;52.734;6.544;2023-08-30T00:17:42;11.50;99.90
60039;DHT22;45916;52.734;6.544;2023-08-30T00:20:08;11.40;99.90
60039;DHT22;45916;52.734;6.544;2023-08-30T00:22:37;11.30;99.90
60039;DHT22;45916;52.734;6.544;2023-08-30T00:25:03;11.30;99.90
60039;DHT22;45916;52.734;6.544;2023-08-30T00:27:29;11.40;99.90
60039;DHT22;45916;52.734;6.544;2023-08-30T00:29:55;11.30;99.90
60039;DHT22;45916;52.734;6.544;2023-08-30T00:32:20;11.30;99.90
60039;DHT22;45916;52.734;6.544;2023-08-30T00:34:50;11.30;99.90
60039;DHT22;45916;52.734;6.544;2023-08-30T00:37:16;11.20;99.90
60039;DHT22;45916;52.734;6.544;2023-08-30T00:39:41;11.20;99.90
60039;DHT22;45916;52.734;6.544;2023-08-30T00:42:07;11.20;99.90
60039;DHT22;45916;52.734;6.544;2023-08-30T00:44:36;11.20;99.90
60039;DHT22;45916;52.734;6.544;2023-08-30T00:47:02;11.20;99.90
60039;DHT22;45916;52.734;6.544;2023-08-30T00:49:32;11.20;99.90
60039;DHT22;45916;52.734;6.544;2023-08-30T00:52:03;11.10;99.90
60039;DHT22;45916;52.734;6.544;2023-08-30T00:54:30;11.10;99.90
60039;DHT22;45916;52.734;6.544;2023-08-30T00:56:57;11.10;99.90
60039;DHT22;45916;52.734;6.544;2023-08-30T00:59:23;11.10;99.90
60039;DHT22;45916;52.734;6.544;2023-08-30T01:01:49;11.20;99.90
60039;DHT22;45916;52.734;6.544;2023-08-30T01:04:15;11.20;99.90
60039;DHT22;45916;52.734;6.544;2023-08-30T01:06:41;11.30;99.90
60039;DHT22;45916;52.734;6.544;2023-08-30T01:09:07;11.40;99.90
60039;DHT22;45916;52.734;6.544;2023-08-30T01:14:28;11.60;99.90
60039;DHT22;45916;52.734;6.544;2023-08-30T01:16:55;11.70;99.90
60039;DHT22;45916;52.734;6.544;2023-08-30T01:22:11;11.80;99.90
60039;DHT22;45916;52.734;6.544;2023-08-30T01:25:00;11.90;99.90
60039;DHT22;45916;52.734;6.544;2023-08-30T01:27:30;11.90;99.90
60039;DHT22;45916;52.734;6.544;2023-08-30T01:29:58;11.90;99.90
60039;DHT22;45916;52.734;6.544;2023-08-30T01:32:24;11.90;99.90
60039;DHT22;45916;52.734;6.544;2023-08-30T01:34:51;11.90;99.90
60039;DHT22;45916;52.734;6.544;2023-08-30T01:37:18;11.90;99.90
60039;DHT22;45916;52.734;6.544;2023-08-30T01:39:44;11.90;99.90
60039;DHT22;45916;52.734;6.544;2023-08-30T01:42:11;11.90;99.90
60039;DHT22;45916;52.734;6.544;2023-08-30T01:44:39;12.00;99.90
60039;DHT22;45916;52.734;6.544;2023-08-30T01:47:07;12.00;99.90
60039;DHT22;45916;52.734;6.544;2023-08-30T01:49:33;12.00;99.90
60039;DHT22;45916;52.734;6.544;2023-08-30T01:52:00;12.00;99.90
60039;DHT22;45916;52.734;6.544;2023-08-30T01:54:28;11.90;99.90
60039;DHT22;45916;52.734;6.544;2023-08-30T01:56:54;11.90;99.90
60039;DHT22;45916;52.734;6.544;2023-08-30T01:59:20;11.90;99.90
60039;DHT22;45916;52.734;6.544;2023-08-30T02:01:45;11.80;99.90
60039;DHT22;45916;52.734;6.544;2023-08-30T02:04:11;11.80;99.90
60039;DHT22;45916;52.734;6.544;2023-08-30T02:06:56;11.90;99.90
60039;DHT22;45916;52.734;6.544;2023-08-30T02:09:40;11.90;99.90
60039;DHT22;45916;52.734;6.544;2023-08-30T02:12:13;11.90;99.90
60039;DHT22;45916;52.734;6.544;2023-08-30T02:14:44;11.90;99.90
60039;DHT22;45916;52.734;6.544;2023-08-30T02:17:13;11.90;99.90
60039;DHT22;45916;52.734;6.544;2023-08-30T02:19:39;12.00;99.90
60039;DHT22;45916;52.734;6.544;2023-08-30T02:22:05;12.00;99.90
60039;DHT22;45916;52.734;6.544;2023-08-30T02:24:31;11.90;99.90
60039;DHT22;45916;52.734;6.544;2023-08-30T02:26:56;11.90;99.90
60039;DHT22;45916;52.734;6.544;2023-08-30T02:29:22;11.80;99.90
60039;DHT22;45916;52.734;6.544;2023-08-30T02:31:48;11.70;99.90
60039;DHT22;45916;52.734;6.544;2023-08-30T02:34:14;11.70;99.90
60039;DHT22;45916;52.734;6.544;2023-08-30T02:36:39;11.60;99.90
60039;DHT22;45916;52.734;6.544;2023-08-30T02:39:05;11.60;99.90
60039;DHT22;45916;52.734;6.544;2023-08-30T02:41:31;11.60;99.90
60039;DHT22;45916;52.734;6.544;2023-08-30T02:43:57;11.70;99.90
60039;DHT22;45916;52.734;6.544;2023-08-30T02:46:22;11.70;99.90
60039;DHT22;45916;52.734;6.544;2023-08-30T02:48:48;11.80;99.90
60039;DHT22;45916;52.734;6.544;2023-08-30T02:51:14;11.80;99.90
60039;DHT22;45916;52.734;6.544;2023-08-30T02:53:39;11.90;99.90
60039;DHT22;45916;52.734;6.544;2023-08-30T02:56:05;11.90;99.90
60039;DHT22;45916;52.734;6.544;2023-08-30T02:58:31;11.90;99.90
60039;DHT22;45916;52.734;6.544;2023-08-30T03:00:56;11.90;99.90
60039;DHT22;45916;52.734;6.544;2023-08-30T03:03:22;11.90;99.90
60039;DHT22;45916;52.734;6.544;2023-08-30T03:05:48;11.70;99.90
60039;DHT22;45916;52.734;6.544;2023-08-30T03:08:13;11.70;99.90
60039;DHT22;45916;52.734;6.544;2023-08-30T03:10:39;11.60;99.90
60039;DHT22;45916;52.734;6.544;2023-08-30T03:13:05;11.50;99.90
60039;DHT22;45916;52.734;6.544;2023-08-30T03:15:31;11.50;99.90
60039;DHT22;45916;52.734;6.544;2023-08-30T03:17:58;11.40;99.90
60039;DHT22;45916;52.734;6.544;2023-08-30T03:20:24;11.40;99.90
60039;DHT22;45916;52.734;6.544;2023-08-30T03:22:50;11.30;99.90
60039;DHT22;45916;52.734;6.544;2023-08-30T03:25:16;11.30;99.90
60039;DHT22;45916;52.734;6.544;2023-08-30T03:27:44;11.30;99.90
60039;DHT22;45916;52.734;6.544;2023-08-30T03:30:10;11.30;99.90
60039;DHT22;45916;52.734;6.544;2023-08-30T03:32:37;11.30;99.90
60039;DHT22;45916;52.734;6.544;2023-08-30T03:35:03;11.30;99.90
60039;DHT22;45916;52.734;6.544;2023-08-30T03:37:29;11.20;99.90
60039;DHT22;45916;52.734;6.544;2023-08-30T03:39:55;11.20;99.90
60039;DHT22;45916;52.734;6.544;2023-08-30T03:42:20;11.20;99.90
60039;DHT22;45916;52.734;6.544;2023-08-30T03:44:46;11.20;99.90
60039;DHT22;45916;52.734;6.544;2023-08-30T03:47:12;11.20;99.90
60039;DHT22;45916;52.734;6.544;2023-08-30T03:49:37;11.20;99.90
60039;DHT22;45916;52.734;6.544;2023-08-30T03:52:03;11.20;99.90
60039;DHT22;45916;52.734;6.544;2023-08-30T03:54:29;11.30;99.90
60039;DHT22;45916;52.734;6.544;2023-08-30T03:56:55;11.30;99.90
60039;DHT22;45916;52.734;6.544;2023-08-30T03:59:20;11.30;99.90
60039;DHT22;45916;52.734;6.544;2023-08-30T04:01:48;11.40;99.90
60039;DHT22;45916;52.734;6.544;2023-08-30T04:04:14;11.40;99.90
60039;DHT22;45916;52.734;6.544;2023-08-30T04:06:40;11.40;99.90
60039;DHT22;45916;52.734;6.544;2023-08-30T04:09:05;11.40;99.90
60039;DHT22;45916;52.734;6.544;2023-08-30T04:11:31;11.40;99.90
60039;DHT22;45916;52.734;6.544;2023-08-30T04:13:58;11.40;99.90
60039;DHT22;45916;52.734;6.544;2023-08-30T04:16:23;11.40;99.90
60039;DHT22;45916;52.734;6.544;2023-08-30T04:18:49;11.40;99.90
60039;DHT22;45916;52.734;6.544;2023-08-30T04:21:15;11.40;99.90
60039;DHT22;45916;52.734;6.544;2023-08-30T04:23:40;11.40;99.90
60039;DHT22;45916;52.734;6.544;2023-08-30T04:26:06;11.30;99.90
60039;DHT22;45916;52.734;6.544;2023-08-30T04:28:32;11.30;99.90
60039;DHT22;45916;52.734;6.544;2023-08-30T04:30:57;11.20;99.90
60039;DHT22;45916;52.734;6.544;2023-08-30T04:33:23;11.30;99.90
60039;DHT22;45916;52.734;6.544;2023-08-30T04:35:53;11.40;99.90
60039;DHT22;45916;52.734;6.544;2023-08-30T04:38:20;11.40;99.90
60039;DHT22;45916;52.734;6.544;2023-08-30T04:40:46;11.50;99.90
60039;DHT22;45916;52.734;6.544;2023-08-30T04:43:12;11.50;99.90
60039;DHT22;45916;52.734;6.544;2023-08-30T04:45:38;11.60;99.90
60039;DHT22;45916;52.734;6.544;2023-08-30T04:48:04;11.70;99.90
60039;DHT22;45916;52.734;6.544;2023-08-30T04:50:30;11.70;99.90
60039;DHT22;45916;52.734;6.544;2023-08-30T04:52:56;11.80;99.90
60039;DHT22;45916;52.734;6.544;2023-08-30T04:55:24;11.90;99.90
60039;DHT22;45916;52.734;6.544;2023-08-30T04:57:50;12.00;99.90
60039;DHT22;45916;52.734;6.544;2023-08-30T05:00:17;12.00;99.90
60039;DHT22;45916;52.734;6.544;2023-08-30T05:02:42;12.10;99.90
60039;DHT22;45916;52.734;6.544;2023-08-30T05:05:09;12.10;99.90
60039;DHT22;45916;52.734;6.544;2023-08-30T05:07:35;12.20;99.90
60039;DHT22;45916;52.734;6.544;2023-08-30T05:10:01;12.20;99.90
60039;DHT22;45916;52.734;6.544;2023-08-30T05:12:28;12.30;99.90
60039;DHT22;45916;52.734;6.544;2023-08-30T05:14:54;12.30;99.90
60039;DHT22;45916;52.734;6.544;2023-08-30T05:17:20;12.30;99.90
60039;DHT22;45916;52.734;6.544;2023-08-30T05:19:45;12.40;99.90
60039;DHT22;45916;52.734;6.544;2023-08-30T05:22:11;12.40;99.90
60039;DHT22;45916;52.734;6.544;2023-08-30T05:24:37;12.40;99.90
60039;DHT22;45916;52.734;6.544;2023-08-30T05:27:03;12.30;99.90
60039;DHT22;45916;52.734;6.544;2023-08-30T05:29:28;12.40;99.90
60039;DHT22;45916;52.734;6.544;2023-08-30T05:31:54;12.40;99.90
60039;DHT22;45916;52.734;6.544;2023-08-30T05:34:20;12.50;99.90
60039;DHT22;45916;52.734;6.544;2023-08-30T05:36:45;12.50;99.90
60039;DHT22;45916;52.734;6.544;2023-08-30T05:39:11;12.50;99.90
60039;DHT22;45916;52.734;6.544;2023-08-30T05:41:37;12.50;99.90
60039;DHT22;45916;52.734;6.544;2023-08-30T05:44:03;12.60;99.90
60039;DHT22;45916;52.734;6.544;2023-08-30T05:46:28;12.60;99.90
60039;DHT22;45916;52.734;6.544;2023-08-30T05:48:54;12.60;99.90
60039;DHT22;45916;52.734;6.544;2023-08-30T05:51:20;12.60;99.90
60039;DHT22;45916;52.734;6.544;2023-08-30T05:53:46;12.70;99.90
60039;DHT22;45916;52.734;6.544;2023-08-30T05:56:11;12.80;99.90
60039;DHT22;45916;52.734;6.544;2023-08-30T05:58:37;12.80;99.90
60039;DHT22;45916;52.734;6.544;2023-08-30T06:01:04;12.90;99.90
60039;DHT22;45916;52.734;6.544;2023-08-30T06:03:32;12.90;99.90
60039;DHT22;45916;52.734;6.544;2023-08-30T06:05:57;12.90;99.90
60039;DHT22;45916;52.734;6.544;2023-08-30T06:08:23;13.00;99.90
60039;DHT22;45916;52.734;6.544;2023-08-30T06:10:49;13.00;99.90
60039;DHT22;45916;52.734;6.544;2023-08-30T06:13:14;13.10;99.90
60039;DHT22;45916;52.734;6.544;2023-08-30T06:15:41;13.10;99.90
60039;DHT22;45916;52.734;6.544;2023-08-30T06:18:07;13.20;99.90
60039;DHT22;45916;52.734;6.544;2023-08-30T06:20:32;13.20;99.90
60039;DHT22;45916;52.734;6.544;2023-08-30T06:22:58;13.30;99.90
60039;DHT22;45916;52.734;6.544;2023-08-30T06:25:24;13.30;99.90
60039;DHT22;45916;52.734;6.544;2023-08-30T06:27:59;13.30;99.90
60039;DHT22;45916;52.734;6.544;2023-08-30T06:30:27;13.40;99.90
60039;DHT22;45916;52.734;6.544;2023-08-30T06:32:55;13.40;99.90
60039;DHT22;45916;52.734;6.544;2023-08-30T06:35:20;13.50;99.90
60039;DHT22;45916;52.734;6.544;2023-08-30T06:37:46;13.60;99.90
60039;DHT22;45916;52.734;6.544;2023-08-30T06:40:12;13.70;99.90
60039;DHT22;45916;52.734;6.544;2023-08-30T06:42:38;13.80;99.90
60039;DHT22;45916;52.734;6.544;2023-08-30T06:45:04;13.90;99.90
60039;DHT22;45916;52.734;6.544;2023-08-30T06:47:30;14.00;99.90
60039;DHT22;45916;52.734;6.544;2023-08-30T06:49:56;14.10;99.90
60039;DHT22;45916;52.734;6.544;2023-08-30T06:52:21;14.20;99.90
60039;DHT22;45916;52.734;6.544;2023-08-30T06:54:47;14.30;99.90
60039;DHT22;45916;52.734;6.544;2023-08-30T06:57:13;14.40;99.90
60039;DHT22;45916;52.734;6.544;2023-08-30T06:59:39;14.50;99.90
60039;DHT22;45916;52.734;6.544;2023-08-30T07:02:05;14.50;99.90
60039;DHT22;45916;52.734;6.544;2023-08-30T07:04:31;14.60;99.90
60039;DHT22;45916;52.734;6.544;2023-08-30T07:06:56;14.60;99.90
60039;DHT22;45916;52.734;6.544;2023-08-30T07:09:22;14.60;99.90
60039;DHT22;45916;52.734;6.544;2023-08-30T07:11:54;14.70;99.90
60039;DHT22;45916;52.734;6.544;2023-08-30T07:14:20;14.80;99.90
60039;DHT22;45916;52.734;6.544;2023-08-30T07:16:46;14.90;99.90
60039;DHT22;45916;52.734;6.544;2023-08-30T07:19:12;15.10;99.90
60039;DHT22;45916;52.734;6.544;2023-08-30T07:21:37;15.40;99.90
60039;DHT22;45916;52.734;6.544;2023-08-30T07:24:06;15.70;99.90
60039;DHT22;45916;52.734;6.544;2023-08-30T07:26:32;16.10;99.90
60039;DHT22;45916;52.734;6.544;2023-08-30T07:28:58;16.80;99.90
60039;DHT22;45916;52.734;6.544;2023-08-30T07:31:23;17.40;99.90
60039;DHT22;45916;52.734;6.544;2023-08-30T07:33:49;17.90;99.90
60039;DHT22;45916;52.734;6.544;2023-08-30T07:36:15;18.70;99.90
60039;DHT22;45916;52.734;6.544;2023-08-30T07:38:40;19.30;99.90
60039;DHT22;45916;52.734;6.544;2023-08-30T07:41:06;20.50;99.90
60039;DHT22;45916;52.734;6.544;2023-08-30T07:43:32;22.00;99.90
60039;DHT22;45916;52.734;6.544;2023-08-30T07:45:58;23.50;99.90
60039;DHT22;45916;52.734;6.544;2023-08-30T07:48:24;24.50;92.20
60039;DHT22;45916;52.734;6.544;2023-08-30T07:50:50;24.60;91.80
60039;DHT22;45916;52.734;6.544;2023-08-30T07:53:16;24.30;84.90
60039;DHT22;45916;52.734;6.544;2023-08-30T07:55:42;24.10;91.40
60039;DHT22;45916;52.734;6.544;2023-08-30T07:58:07;23.70;87.80
60039;DHT22;45916;52.734;6.544;2023-08-30T08:00:35;23.20;90.30
60039;DHT22;45916;52.734;6.544;2023-08-30T08:03:01;22.40;91.80
60039;DHT22;45916;52.734;6.544;2023-08-30T08:05:27;21.50;96.40
60039;DHT22;45916;52.734;6.544;2023-08-30T08:07:53;20.90;99.50
60039;DHT22;45916;52.734;6.544;2023-08-30T08:10:19;20.40;99.90
60039;DHT22;45916;52.734;6.544;2023-08-30T08:12:45;20.10;99.90
60039;DHT22;45916;52.734;6.544;2023-08-30T08:15:11;19.80;99.90
60039;DHT22;45916;52.734;6.544;2023-08-30T08:17:37;19.70;99.90
60039;DHT22;45916;52.734;6.544;2023-08-30T08:20:04;19.60;99.90
60039;DHT22;45916;52.734;6.544;2023-08-30T08:22:31;19.60;99.90
60039;DHT22;45916;52.734;6.544;2023-08-30T08:24:57;19.40;99.90
60039;DHT22;45916;52.734;6.544;2023-08-30T08:27:24;19.40;99.90
60039;DHT22;45916;52.734;6.544;2023-08-30T08:29:50;19.40;99.90
60039;DHT22;45916;52.734;6.544;2023-08-30T08:32:16;19.30;99.90
60039;DHT22;45916;52.734;6.544;2023-08-30T08:34:42;19.00;99.90
60039;DHT22;45916;52.734;6.544;2023-08-30T08:37:08;18.70;99.90
60039;DHT22;45916;52.734;6.544;2023-08-30T08:39:33;18.40;99.90
60039;DHT22;45916;52.734;6.544;2023-08-30T08:41:59;18.20;99.90
60039;DHT22;45916;52.734;6.544;2023-08-30T08:44:27;18.10;99.90
60039;DHT22;45916;52.734;6.544;2023-08-30T08:46:56;18.00;99.90
60039;DHT22;45916;52.734;6.544;2023-08-30T08:49:23;17.70;99.90
60039;DHT22;45916;52.734;6.544;2023-08-30T08:51:53;17.60;99.90
60039;DHT22;45916;52.734;6.544;2023-08-30T08:54:20;17.50;99.90
60039;DHT22;45916;52.734;6.544;2023-08-30T08:56:46;17.50;99.90
60039;DHT22;45916;52.734;6.544;2023-08-30T08:59:12;17.50;99.90
60039;DHT22;45916;52.734;6.544;2023-08-30T09:01:41;17.50;99.90
60039;DHT22;45916;52.734;6.544;2023-08-30T09:04:09;17.40;99.90
60039;DHT22;45916;52.734;6.544;2023-08-30T09:06:36;17.30;99.90
60039;DHT22;45916;52.734;6.544;2023-08-30T09:09:05;17.20;99.90
60039;DHT22;45916;52.734;6.544;2023-08-30T09:11:31;17.10;99.90
60039;DHT22;45916;52.734;6.544;2023-08-30T09:13:57;17.00;99.90
60039;DHT22;45916;52.734;6.544;2023-08-30T09:16:23;16.80;99.90
60039;DHT22;45916;52.734;6.544;2023-08-30T09:19:05;16.80;99.90
60039;DHT22;45916;52.734;6.544;2023-08-30T09:21:33;16.60;99.90
60039;DHT22;45916;52.734;6.544;2023-08-30T09:24:04;16.50;99.90
60039;DHT22;45916;52.734;6.544;2023-08-30T09:26:30;16.50;99.90
60039;DHT22;45916;52.734;6.544;2023-08-30T09:29:04;16.50;99.90
60039;DHT22;45916;52.734;6.544;2023-08-30T09:31:39;16.50;99.90
60039;DHT22;45916;52.734;6.544;2023-08-30T09:34:07;16.60;99.90
60039;DHT22;45916;52.734;6.544;2023-08-30T09:36:36;16.60;99.90
60039;DHT22;45916;52.734;6.544;2023-08-30T09:41:31;16.60;99.90
60039;DHT22;45916;52.734;6.544;2023-08-30T09:43:59;16.60;99.90
60039;DHT22;45916;52.734;6.544;2023-08-30T09:46:25;16.70;99.90
60039;DHT22;45916;52.734;6.544;2023-08-30T09:48:53;16.70;99.90
60039;DHT22;45916;52.734;6.544;2023-08-30T09:51:20;16.80;99.90
60039;DHT22;45916;52.734;6.544;2023-08-30T09:53:47;16.80;99.90
60039;DHT22;45916;52.734;6.544;2023-08-30T09:56:14;16.90;99.90
60039;DHT22;45916;52.734;6.544;2023-08-30T09:58:40;16.80;99.90
60039;DHT22;45916;52.734;6.544;2023-08-30T10:01:07;16.80;99.90
60039;DHT22;45916;52.734;6.544;2023-08-30T10:03:34;16.90;99.90
60039;DHT22;45916;52.734;6.544;2023-08-30T10:06:01;17.10;99.90
60039;DHT22;45916;52.734;6.544;2023-08-30T10:08:32;17.20;99.90
60039;DHT22;45916;52.734;6.544;2023-08-30T10:10:59;17.20;99.90
60039;DHT22;45916;52.734;6.544;2023-08-30T10:13:25;17.20;99.90
60039;DHT22;45916;52.734;6.544;2023-08-30T10:15:56;17.40;99.90
60039;DHT22;45916;52.734;6.544;2023-08-30T10:18:24;17.20;99.90
60039;DHT22;45916;52.734;6.544;2023-08-30T10:20:54;17.10;99.90
60039;DHT22;45916;52.734;6.544;2023-08-30T10:23:21;16.90;99.90
60039;DHT22;45916;52.734;6.544;2023-08-30T10:25:49;16.60;99.90
60039;DHT22;45916;52.734;6.544;2023-08-30T10:28:16;16.30;99.90
60039;DHT22;45916;52.734;6.544;2023-08-30T10:30:43;16.30;99.90
60039;DHT22;45916;52.734;6.544;2023-08-30T10:33:15;16.00;99.90
60039;DHT22;45916;52.734;6.544;2023-08-30T10:35:49;15.90;99.90
60039;DHT22;45916;52.734;6.544;2023-08-30T10:38:29;15.60;99.90
60039;DHT22;45916;52.734;6.544;2023-08-30T10:40:55;15.60;99.90
60039;DHT22;45916;52.734;6.544;2023-08-30T10:43:34;15.50;99.90
60039;DHT22;45916;52.734;6.544;2023-08-30T10:46:04;15.60;99.90
60039;DHT22;45916;52.734;6.544;2023-08-30T10:48:40;15.50;99.90
60039;DHT22;45916;52.734;6.544;2023-08-30T10:51:34;15.40;99.90
60039;DHT22;45916;52.734;6.544;2023-08-30T10:54:16;15.30;99.90
60039;DHT22;45916;52.734;6.544;2023-08-30T10:57:00;15.30;99.90
60039;DHT22;45916;52.734;6.544;2023-08-30T10:59:28;15.20;99.90
60039;DHT22;45916;52.734;6.544;2023-08-30T11:01:55;15.20;99.90
60039;DHT22;45916;52.734;6.544;2023-08-30T11:04:24;15.20;99.90
60039;DHT22;45916;52.734;6.544;2023-08-30T11:06:51;15.10;99.90
60039;DHT22;45916;52.734;6.544;2023-08-30T11:09:19;15.00;99.90
60039;DHT22;45916;52.734;6.544;2023-08-30T11:11:49;14.90;99.90
60039;DHT22;45916;52.734;6.544;2023-08-30T11:14:16;14.80;99.90
60039;DHT22;45916;52.734;6.544;2023-08-30T11:16:42;14.90;99.90
60039;DHT22;45916;52.734;6.544;2023-08-30T11:19:09;15.00;99.90
60039;DHT22;45916;52.734;6.544;2023-08-30T11:21:38;15.00;99.90
60039;DHT22;45916;52.734;6.544;2023-08-30T11:24:05;15.10;99.90
60039;DHT22;45916;52.734;6.544;2023-08-30T11:26:31;15.10;99.90
60039;DHT22;45916;52.734;6.544;2023-08-30T11:28:57;15.10;99.90
60039;DHT22;45916;52.734;6.544;2023-08-30T11:31:23;15.10;99.90
60039;DHT22;45916;52.734;6.544;2023-08-30T11:33:53;15.10;99.90
60039;DHT22;45916;52.734;6.544;2023-08-30T11:36:21;15.20;99.90
60039;DHT22;45916;52.734;6.544;2023-08-30T11:38:51;15.20;99.90
60039;DHT22;45916;52.734;6.544;2023-08-30T11:41:17;15.30;99.90
60039;DHT22;45916;52.734;6.544;2023-08-30T11:43:45;15.30;99.90
60039;DHT22;45916;52.734;6.544;2023-08-30T11:46:10;15.20;99.90
60039;DHT22;45916;52.734;6.544;2023-08-30T11:48:39;15.20;99.90
60039;DHT22;45916;52.734;6.544;2023-08-30T11:51:05;15.20;99.90
60039;DHT22;45916;52.734;6.544;2023-08-30T11:53:32;15.10;99.90
60039;DHT22;45916;52.734;6.544;2023-08-30T11:55:57;15.20;99.90
60039;DHT22;45916;52.734;6.544;2023-08-30T11:58:23;15.30;99.90
60039;DHT22;45916;52.734;6.544;2023-08-30T12:00:50;15.30;99.90
60039;DHT22;45916;52.734;6.544;2023-08-30T12:03:16;15.10;99.90
60039;DHT22;45916;52.734;6.544;2023-08-30T12:05:46;15.20;99.90
60039;DHT22;45916;52.734;6.544;2023-08-30T12:08:26;15.20;99.90
60039;DHT22;45916;52.734;6.544;2023-08-30T12:10:52;15.20;99.90
60039;DHT22;45916;52.734;6.544;2023-08-30T12:13:29;15.10;99.90
60039;DHT22;45916;52.734;6.544;2023-08-30T12:15:56;15.10;99.90
60039;DHT22;45916;52.734;6.544;2023-08-30T12:20:56;15.30;99.90
60039;DHT22;45916;52.734;6.544;2023-08-30T12:23:24;15.30;99.90
60039;DHT22;45916;52.734;6.544;2023-08-30T12:26:04;15.20;99.90
60039;DHT22;45916;52.734;6.544;2023-08-30T12:28:32;15.20;99.90
60039;DHT22;45916;52.734;6.544;2023-08-30T12:30:58;15.30;99.90
60039;DHT22;45916;52.734;6.544;2023-08-30T12:33:25;15.50;99.90
60039;DHT22;45916;52.734;6.544;2023-08-30T12:35:52;15.70;99.90
60039;DHT22;45916;52.734;6.544;2023-08-30T12:38:18;15.90;99.90
60039;DHT22;45916;52.734;6.544;2023-08-30T12:40:48;16.00;99.90
60039;DHT22;45916;52.734;6.544;2023-08-30T12:43:17;16.20;99.90
60039;DHT22;45916;52.734;6.544;2023-08-30T12:45:44;16.30;99.90
60039;DHT22;45916;52.734;6.544;2023-08-30T12:48:13;16.40;99.90
60039;DHT22;45916;52.734;6.544;2023-08-30T12:50:48;16.60;99.90
60039;DHT22;45916;52.734;6.544;2023-08-30T12:53:14;16.60;99.90
60039;DHT22;45916;52.734;6.544;2023-08-30T12:55:43;16.60;99.90
60039;DHT22;45916;52.734;6.544;2023-08-30T12:58:09;16.70;99.90
60039;DHT22;45916;52.734;6.544;2023-08-30T13:00:35;16.80;99.90
60039;DHT22;45916;52.734;6.544;2023-08-30T13:03:01;16.90;99.90
60039;DHT22;45916;52.734;6.544;2023-08-30T13:05:29;16.90;99.90
60039;DHT22;45916;52.734;6.544;2023-08-30T13:07:57;17.00;99.90
60039;DHT22;45916;52.734;6.544;2023-08-30T13:10:23;17.20;99.90
60039;DHT22;45916;52.734;6.544;2023-08-30T13:12:49;17.40;99.90
60039;DHT22;45916;52.734;6.544;2023-08-30T13:15:15;17.60;99.90
60039;DHT22;45916;52.734;6.544;2023-08-30T13:17:40;17.60;99.90
60039;DHT22;45916;52.734;6.544;2023-08-30T13:20:06;17.70;99.90
60039;DHT22;45916;52.734;6.544;2023-08-30T13:22:32;17.70;99.90
60039;DHT22;45916;52.734;6.544;2023-08-30T13:24:58;17.70;99.90
60039;DHT22;45916;52.734;6.544;2023-08-30T13:27:24;17.90;99.90
60039;DHT22;45916;52.734;6.544;2023-08-30T13:29:49;18.30;99.90
60039;DHT22;45916;52.734;6.544;2023-08-30T13:32:15;18.60;99.90
60039;DHT22;45916;52.734;6.544;2023-08-30T13:34:41;18.90;99.90
60039;DHT22;45916;52.734;6.544;2023-08-30T13:37:11;19.30;99.90
60039;DHT22;45916;52.734;6.544;2023-08-30T13:39:38;19.60;99.90
60039;DHT22;45916;52.734;6.544;2023-08-30T13:42:04;19.80;99.90
60039;DHT22;45916;52.734;6.544;2023-08-30T13:44:30;20.00;99.90
60039;DHT22;45916;52.734;6.544;2023-08-30T13:46:57;20.10;99.90
60039;DHT22;45916;52.734;6.544;2023-08-30T13:49:23;20.00;99.90
60039;DHT22;45916;52.734;6.544;2023-08-30T13:51:49;20.00;99.90
60039;DHT22;45916;52.734;6.544;2023-08-30T13:54:14;20.00;99.90
60039;DHT22;45916;52.734;6.544;2023-08-30T13:56:40;20.00;99.90
60039;DHT22;45916;52.734;6.544;2023-08-30T13:59:07;20.00;99.90
60039;DHT22;45916;52.734;6.544;2023-08-30T14:01:33;20.00;99.90
60039;DHT22;45916;52.734;6.544;2023-08-30T14:04:00;19.80;99.90
60039;DHT22;45916;52.734;6.544;2023-08-30T14:06:26;19.70;99.90
60039;DHT22;45916;52.734;6.544;2023-08-30T14:08:52;19.70;99.90
60039;DHT22;45916;52.734;6.544;2023-08-30T14:11:17;19.80;99.90
60039;DHT22;45916;52.734;6.544;2023-08-30T14:13:43;20.00;99.90
60039;DHT22;45916;52.734;6.544;2023-08-30T14:16:09;20.20;99.90
60039;DHT22;45916;52.734;6.544;2023-08-30T14:18:35;20.20;99.90
60039;DHT22;45916;52.734;6.544;2023-08-30T14:21:01;20.00;99.90
60039;DHT22;45916;52.734;6.544;2023-08-30T14:23:28;20.00;99.90
60039;DHT22;45916;52.734;6.544;2023-08-30T14:26:06;20.00;99.90
60039;DHT22;45916;52.734;6.544;2023-08-30T14:28:39;20.10;99.90
60039;DHT22;45916;52.734;6.544;2023-08-30T14:31:09;20.10;99.90
60039;DHT22;45916;52.734;6.544;2023-08-30T14:33:36;20.20;99.90
60039;DHT22;45916;52.734;6.544;2023-08-30T14:36:01;20.30;99.90
60039;DHT22;45916;52.734;6.544;2023-08-30T14:38:28;20.60;99.90
60039;DHT22;45916;52.734;6.544;2023-08-30T14:40:55;20.80;99.90
60039;DHT22;45916;52.734;6.544;2023-08-30T14:43:21;20.90;99.90
60039;DHT22;45916;52.734;6.544;2023-08-30T14:45:47;21.10;99.90
60039;DHT22;45916;52.734;6.544;2023-08-30T14:48:12;21.20;99.90
60039;DHT22;45916;52.734;6.544;2023-08-30T14:50:38;21.10;99.90
60039;DHT22;45916;52.734;6.544;2023-08-30T14:53:04;21.00;99.90
60039;DHT22;45916;52.734;6.544;2023-08-30T14:55:31;20.60;99.90
60039;DHT22;45916;52.734;6.544;2023-08-30T14:57:57;20.20;99.90
60039;DHT22;45916;52.734;6.544;2023-08-30T15:00:23;19.80;99.90
60039;DHT22;45916;52.734;6.544;2023-08-30T15:02:49;19.40;99.90
60039;DHT22;45916;52.734;6.544;2023-08-30T15:05:15;19.00;99.90
60039;DHT22;45916;52.734;6.544;2023-08-30T15:07:41;18.70;99.90
60039;DHT22;45916;52.734;6.544;2023-08-30T15:10:07;18.40;99.90
60039;DHT22;45916;52.734;6.544;2023-08-30T15:12:32;18.30;99.90
60039;DHT22;45916;52.734;6.544;2023-08-30T15:14:58;18.20;99.90
60039;DHT22;45916;52.734;6.544;2023-08-30T15:17:24;18.20;99.90
60039;DHT22;45916;52.734;6.544;2023-08-30T15:19:50;18.20;99.90
60039;DHT22;45916;52.734;6.544;2023-08-30T15:22:16;18.30;99.90
60039;DHT22;45916;52.734;6.544;2023-08-30T15:24:42;18.40;99.90
60039;DHT22;45916;52.734;6.544;2023-08-30T15:27:08;18.70;99.90
60039;DHT22;45916;52.734;6.544;2023-08-30T15:29:33;18.80;99.90
60039;DHT22;45916;52.734;6.544;2023-08-30T15:31:59;18.80;99.90
60039;DHT22;45916;52.734;6.544;2023-08-30T15:34:25;18.70;99.90
60039;DHT22;45916;52.734;6.544;2023-08-30T15:36:50;18.50;99.90
60039;DHT22;45916;52.734;6.544;2023-08-30T15:39:16;18.30;99.90